createdAt,value
2022-08-19T00:01:53.812Z,14.52
2022-08-19T00:03:57.707Z,14.48
2022-08-19T00:06:01.229Z,14.46
2022-08-19T00:08:05.365Z,14.46
2022-08-19T00:10:15.411Z,14.44
2022-08-19T00:12:20.809Z,14.42
2022-08-19T00:14:25.919Z,14.42
2022-08-19T00:16:29.485Z,14.40
2022-08-19T00:18:33.621Z,14.38
2022-08-19T00:20:37.550Z,14.38
2022-08-19T00:22:42.428Z,14.38
2022-08-19T00:24:49.621Z,14.38
2022-08-19T00:26:56.301Z,14.37
2022-08-19T00:29:01.849Z,14.35
2022-08-19T00:31:06.424Z,14.34
2022-08-19T00:33:10.157Z,14.33
2022-08-19T00:35:13.995Z,14.34
2022-08-19T00:37:17.548Z,14.34
2022-08-19T00:39:21.302Z,14.34
2022-08-19T00:41:26.810Z,14.34
2022-08-19T00:43:30.409Z,14.33
2022-08-19T00:45:37.134Z,14.33
2022-08-19T00:47:40.652Z,14.31
2022-08-19T00:49:51.854Z,14.30
2022-08-19T00:52:02.767Z,14.29
2022-08-19T00:54:06.576Z,14.28
2022-08-19T00:56:10.218Z,14.27
2022-08-19T00:58:18.585Z,14.23
2022-08-19T01:00:22.902Z,14.22
2022-08-19T01:02:29.923Z,14.21
2022-08-19T01:04:33.424Z,14.21
2022-08-19T01:06:39.199Z,14.19
2022-08-19T01:08:42.611Z,14.18
2022-08-19T01:10:49.289Z,14.15
2022-08-19T01:12:54.446Z,14.10
2022-08-19T01:14:58.183Z,14.09
2022-08-19T01:17:03.805Z,14.09
2022-08-19T01:19:15.016Z,14.06
2022-08-19T01:21:31.950Z,14.04
2022-08-19T01:23:45.788Z,14.01
2022-08-19T01:25:56.970Z,14.00
2022-08-19T01:28:09.261Z,13.97
2022-08-19T01:30:17.529Z,13.98
2022-08-19T01:32:33.502Z,13.97
2022-08-19T01:34:37.466Z,13.96
2022-08-19T01:36:44.049Z,13.97
2022-08-19T01:38:49.578Z,13.97
2022-08-19T01:40:53.340Z,13.96
2022-08-19T01:42:57.344Z,13.96
2022-08-19T01:45:01.490Z,13.95
2022-08-19T01:47:05.921Z,13.94
2022-08-19T01:49:09.638Z,13.94
2022-08-19T01:51:14.987Z,13.95
2022-08-19T01:53:18.707Z,13.97
2022-08-19T01:55:24.931Z,14.00
2022-08-19T01:57:28.389Z,13.99
2022-08-19T01:59:32.760Z,13.99
2022-08-19T02:01:36.102Z,13.99
2022-08-19T02:03:39.623Z,14.00
2022-08-19T02:05:44.151Z,14.03
2022-08-19T02:07:47.615Z,14.05
2022-08-19T02:09:50.951Z,14.06
2022-08-19T02:11:55.626Z,14.10
2022-08-19T02:13:59.674Z,14.10
2022-08-19T02:16:04.217Z,14.11
2022-08-19T02:18:10.559Z,14.11
2022-08-19T02:20:14.535Z,14.12
2022-08-19T02:22:17.948Z,14.11
2022-08-19T02:24:21.174Z,14.10
2022-08-19T02:26:24.555Z,14.07
2022-08-19T02:28:29.317Z,14.04
2022-08-19T02:30:33.136Z,14.00
2022-08-19T02:32:44.412Z,13.99
2022-08-19T02:34:48.895Z,13.93
2022-08-19T02:36:52.515Z,13.90
2022-08-19T02:38:56.360Z,13.89
2022-08-19T02:41:02.438Z,13.90
2022-08-19T02:43:07.865Z,13.89
2022-08-19T02:45:13.407Z,13.91
2022-08-19T02:47:17.504Z,13.91
2022-08-19T02:49:21.857Z,13.92
2022-08-19T02:51:27.699Z,13.89
2022-08-19T02:53:31.621Z,13.86
2022-08-19T02:55:45.979Z,13.86
2022-08-19T02:57:50.554Z,13.83
2022-08-19T02:59:54.208Z,13.81
2022-08-19T03:01:59.213Z,13.78
2022-08-19T03:04:05.437Z,13.76
2022-08-19T03:06:13.833Z,13.75
2022-08-19T03:08:17.487Z,13.72
2022-08-19T03:10:21.484Z,13.70
2022-08-19T03:12:25.002Z,13.70
2022-08-19T03:14:29.012Z,13.69
2022-08-19T03:16:37.829Z,13.69
2022-08-19T03:18:43.004Z,13.68
2022-08-19T03:20:48.974Z,13.67
2022-08-19T03:22:52.684Z,13.66
2022-08-19T03:24:56.586Z,13.64
2022-08-19T03:27:00.558Z,13.64
2022-08-19T03:29:05.650Z,13.61
2022-08-19T03:31:42.155Z,13.59
2022-08-19T03:33:37.272Z,13.56
2022-08-19T03:35:42.332Z,13.56
2022-08-19T03:37:45.908Z,13.55
2022-08-19T03:39:49.647Z,13.53
2022-08-19T03:42:32.110Z,13.52
2022-08-19T03:44:24.792Z,13.53
2022-08-19T03:46:30.910Z,13.51
2022-08-19T03:48:35.878Z,13.49
2022-08-19T03:50:43.186Z,13.49
2022-08-19T03:52:51.634Z,13.48
2022-08-19T03:54:55.308Z,13.47
2022-08-19T03:57:00.439Z,13.46
2022-08-19T03:59:05.310Z,13.46
2022-08-19T04:01:10.801Z,13.45
2022-08-19T04:03:14.377Z,13.45
2022-08-19T04:05:18.061Z,13.44
2022-08-19T04:07:23.200Z,13.45
2022-08-19T04:09:27.350Z,13.44
2022-08-19T04:11:43.563Z,13.43
2022-08-19T04:13:48.109Z,13.42
2022-08-19T04:15:52.035Z,13.43
2022-08-19T04:17:55.960Z,13.43
2022-08-19T04:19:59.742Z,13.43
2022-08-19T04:22:05.156Z,13.41
2022-08-19T04:24:12.174Z,13.39
2022-08-19T04:26:16.905Z,13.37
2022-08-19T04:28:20.458Z,13.36
2022-08-19T04:30:24.008Z,13.36
2022-08-19T04:32:27.648Z,13.37
2022-08-19T04:34:31.815Z,13.33
2022-08-19T04:36:38.107Z,13.33
2022-08-19T04:38:41.662Z,13.31
2022-08-19T04:41:06.871Z,13.29
2022-08-19T04:43:15.627Z,13.28
2022-08-19T04:45:19.294Z,13.26
2022-08-19T04:47:48.123Z,13.24
2022-08-19T04:49:50.667Z,13.24
2022-08-19T04:51:56.255Z,13.25
2022-08-19T04:54:01.027Z,13.26
2022-08-19T04:56:10.758Z,13.26
2022-08-19T04:58:14.469Z,13.26
2022-08-19T05:00:19.233Z,13.25
2022-08-19T05:02:24.278Z,13.25
2022-08-19T05:04:29.936Z,13.23
2022-08-19T05:06:34.841Z,13.21
2022-08-19T05:08:42.083Z,13.20
2022-08-19T05:10:45.673Z,13.19
2022-08-19T05:12:50.625Z,13.17
2022-08-19T05:14:54.100Z,13.15
2022-08-19T05:17:23.665Z,13.13
2022-08-19T05:19:38.473Z,13.15
2022-08-19T05:22:01.401Z,13.14
2022-08-19T05:24:09.577Z,13.16
2022-08-19T05:26:13.866Z,13.17
2022-08-19T05:28:18.873Z,13.18
2022-08-19T05:30:33.527Z,13.17
2022-08-19T05:32:45.996Z,13.16
2022-08-19T05:34:50.229Z,13.15
2022-08-19T05:36:58.205Z,13.15
2022-08-19T05:39:02.043Z,13.16
2022-08-19T05:41:09.780Z,13.13
2022-08-19T05:43:13.268Z,13.13
2022-08-19T05:45:18.294Z,13.14
2022-08-19T05:47:22.441Z,13.15
2022-08-19T05:49:28.128Z,13.18
2022-08-19T05:51:31.722Z,13.21
2022-08-19T05:53:35.974Z,13.24
2022-08-19T05:55:41.388Z,13.26
2022-08-19T05:57:44.916Z,13.29
2022-08-19T05:59:52.648Z,13.30
2022-08-19T06:01:58.524Z,13.33
2022-08-19T06:04:02.285Z,13.37
2022-08-19T06:06:06.649Z,13.42
2022-08-19T06:08:10.329Z,13.48
2022-08-19T06:10:14.033Z,13.51
2022-08-19T06:12:17.691Z,13.55
2022-08-19T06:14:27.728Z,13.59
2022-08-19T06:16:35.102Z,13.64
2022-08-19T06:18:40.444Z,13.75
2022-08-19T06:20:55.401Z,14.07
2022-08-19T06:23:00.264Z,14.67
2022-08-19T06:25:05.500Z,14.79
2022-08-19T06:27:09.192Z,14.72
2022-08-19T06:29:23.477Z,14.70
2022-08-19T06:31:30.159Z,14.82
2022-08-19T06:33:33.727Z,15.36
2022-08-19T06:35:43.142Z,16.38
2022-08-19T06:37:46.975Z,17.01
2022-08-19T06:39:51.661Z,16.98
2022-08-19T06:41:58.935Z,16.65
2022-08-19T06:44:07.425Z,16.85
2022-08-19T06:46:19.791Z,17.56
2022-08-19T06:48:23.459Z,18.36
2022-08-19T06:50:30.104Z,19.08
2022-08-19T06:52:38.469Z,19.72
2022-08-19T06:54:55.368Z,20.32
2022-08-19T06:57:03.089Z,20.77
2022-08-19T06:59:08.681Z,21.20
2022-08-19T07:01:12.824Z,21.46
2022-08-19T07:03:16.801Z,21.66
2022-08-19T07:05:20.682Z,21.74
2022-08-19T07:07:24.274Z,21.85
2022-08-19T07:09:29.515Z,21.90
2022-08-19T07:11:34.966Z,21.98
2022-08-19T07:13:39.924Z,22.07
2022-08-19T07:15:44.101Z,22.11
2022-08-19T07:17:52.650Z,22.41
2022-08-19T07:19:56.489Z,22.50
2022-08-19T07:22:03.610Z,22.03
2022-08-19T07:24:07.893Z,21.16
2022-08-19T07:26:16.095Z,20.53
2022-08-19T07:28:24.407Z,20.21
2022-08-19T07:30:28.607Z,19.82
2022-08-19T07:32:32.761Z,19.86
2022-08-19T07:34:38.709Z,19.98
2022-08-19T07:36:44.780Z,20.44
2022-08-19T07:38:50.285Z,20.68
2022-08-19T07:40:55.133Z,20.58
2022-08-19T07:43:00.333Z,20.36
2022-08-19T07:45:03.984Z,20.61
2022-08-19T07:47:07.946Z,20.84
2022-08-19T07:49:31.801Z,21.49
2022-08-19T07:51:36.354Z,22.07
2022-08-19T07:53:40.632Z,22.60
2022-08-19T07:55:44.226Z,22.74
2022-08-19T07:57:47.795Z,22.90
2022-08-19T07:59:52.720Z,22.95
2022-08-19T08:01:56.384Z,22.98
2022-08-19T08:04:18.135Z,22.97
2022-08-19T08:06:39.172Z,22.91
2022-08-19T08:09:00.120Z,22.78
2022-08-19T08:11:04.191Z,22.27
2022-08-19T08:13:11.254Z,21.63
2022-08-19T08:15:19.683Z,21.02
2022-08-19T08:17:31.159Z,20.39
2022-08-19T08:19:51.968Z,19.85
2022-08-19T08:21:56.545Z,19.48
2022-08-19T08:26:07.795Z,18.80
2022-08-19T08:28:17.405Z,18.51
2022-08-19T08:30:26.382Z,18.29
2022-08-19T08:32:34.777Z,18.19
2022-08-19T08:34:39.465Z,18.15
2022-08-19T08:36:48.614Z,18.12
2022-08-19T08:41:08.919Z,18.09
2022-08-19T08:43:24.105Z,17.98
2022-08-19T08:45:30.419Z,17.87
2022-08-19T08:47:48.598Z,17.75
2022-08-19T08:49:58.005Z,17.72
2022-08-19T08:52:06.610Z,17.76
2022-08-19T08:54:14.404Z,17.78
2022-08-19T08:56:18.815Z,17.80
2022-08-19T08:58:30.414Z,17.91
2022-08-19T09:00:39.229Z,18.04
2022-08-19T09:02:43.495Z,18.15
2022-08-19T09:04:47.863Z,18.24
2022-08-19T09:07:01.907Z,18.34
2022-08-19T09:09:32.208Z,18.34
2022-08-19T09:11:50.047Z,18.21
2022-08-19T09:14:29.232Z,18.05
2022-08-19T09:16:35.530Z,17.98
2022-08-19T09:18:45.638Z,17.99
2022-08-19T09:20:49.668Z,18.05
2022-08-19T09:22:53.193Z,18.11
2022-08-19T09:24:57.666Z,18.20
2022-08-19T09:27:06.696Z,18.31
2022-08-19T09:29:22.862Z,18.36
2022-08-19T09:31:28.593Z,18.44
2022-08-19T09:33:34.012Z,18.51
2022-08-19T09:35:53.071Z,18.59
2022-08-19T09:37:59.851Z,18.68
2022-08-19T09:40:03.885Z,18.81
2022-08-19T09:42:16.238Z,18.94
2022-08-19T09:44:24.433Z,19.11
2022-08-19T09:46:32.611Z,19.25
2022-08-19T09:48:38.321Z,19.36
2022-08-19T09:50:51.652Z,19.32
2022-08-19T09:52:57.415Z,19.15
2022-08-19T09:55:01.812Z,18.98
2022-08-19T09:57:10.937Z,18.80
2022-08-19T09:59:14.543Z,18.65
2022-08-19T10:01:21.511Z,18.46
2022-08-19T10:03:29.854Z,18.32
2022-08-19T10:05:55.277Z,18.23
2022-08-19T10:08:02.069Z,18.19
2022-08-19T10:10:10.428Z,18.17
2022-08-19T10:12:17.877Z,18.14
2022-08-19T10:14:24.805Z,18.05
2022-08-19T10:16:30.186Z,18.01
2022-08-19T10:18:35.618Z,17.96
2022-08-19T10:20:43.314Z,17.92
2022-08-19T10:22:46.977Z,17.89
2022-08-19T10:24:56.033Z,17.90
2022-08-19T10:27:00.151Z,17.86
2022-08-19T10:29:05.469Z,17.83
2022-08-19T10:31:10.635Z,17.80
2022-08-19T10:33:15.235Z,17.72
2022-08-19T10:35:56.609Z,17.56
2022-08-19T10:38:04.643Z,17.44
2022-08-19T10:40:11.970Z,17.42
2022-08-19T10:42:17.263Z,17.42
2022-08-19T10:44:22.826Z,17.42
2022-08-19T10:46:28.718Z,17.43
2022-08-19T10:48:32.342Z,17.41
2022-08-19T10:50:52.448Z,17.38
2022-08-19T10:52:56.358Z,17.32
2022-08-19T10:55:18.758Z,17.30
2022-08-19T10:57:27.920Z,17.32
2022-08-19T10:59:40.854Z,17.35
2022-08-19T11:01:47.893Z,17.30
2022-08-19T11:03:55.083Z,17.30
2022-08-19T11:06:02.563Z,17.32
2022-08-19T11:08:17.636Z,17.34
2022-08-19T11:10:29.044Z,17.32
2022-08-19T11:12:33.607Z,17.33
2022-08-19T11:14:37.759Z,17.33
2022-08-19T11:16:41.929Z,17.52
2022-08-19T11:18:47.830Z,17.91
2022-08-19T11:20:51.451Z,18.26
2022-08-19T11:22:55.792Z,18.61
2022-08-19T11:24:59.493Z,18.91
2022-08-19T11:27:06.951Z,19.16
2022-08-19T11:29:13.891Z,19.37
2022-08-19T11:31:20.070Z,19.49
2022-08-19T11:33:23.564Z,19.59
2022-08-19T11:35:27.131Z,19.65
2022-08-19T11:37:30.761Z,19.71
2022-08-19T11:39:36.755Z,19.76
2022-08-19T11:41:40.298Z,19.81
2022-08-19T11:43:45.505Z,19.86
2022-08-19T11:45:49.967Z,19.98
2022-08-19T11:47:54.053Z,20.10
2022-08-19T11:49:57.668Z,20.23
2022-08-19T11:52:01.281Z,20.23
2022-08-19T11:54:07.938Z,20.17
2022-08-19T11:56:12.065Z,20.04
2022-08-19T11:58:18.843Z,19.86
2022-08-19T12:00:24.472Z,19.78
2022-08-19T12:02:28.344Z,19.76
2022-08-19T12:04:31.872Z,19.84
2022-08-19T12:06:35.965Z,19.81
2022-08-19T12:08:39.667Z,19.70
2022-08-19T12:10:43.341Z,19.71
2022-08-19T12:12:56.396Z,19.79
2022-08-19T12:15:03.321Z,19.85
2022-08-19T12:17:10.188Z,19.91
2022-08-19T12:19:13.973Z,20.00
2022-08-19T12:21:29.032Z,20.06
2022-08-19T12:23:32.710Z,20.14
2022-08-19T12:25:36.429Z,20.15
2022-08-19T12:27:41.689Z,20.18
2022-08-19T12:29:46.625Z,20.20
2022-08-19T12:31:50.212Z,20.17
2022-08-19T12:33:55.536Z,20.09
2022-08-19T12:36:03.446Z,19.99
2022-08-19T12:38:07.931Z,19.86
2022-08-19T12:40:13.696Z,19.70
2022-08-19T12:42:18.169Z,19.57
2022-08-19T12:44:29.530Z,19.49
2022-08-19T12:46:35.673Z,19.46
2022-08-19T12:48:42.956Z,19.45
2022-08-19T12:50:48.397Z,19.45
2022-08-19T12:52:52.265Z,19.53
2022-08-19T12:54:57.947Z,19.62
2022-08-19T12:57:01.870Z,19.71
2022-08-19T12:59:06.965Z,19.79
2022-08-19T13:01:13.113Z,19.84
2022-08-19T13:03:17.459Z,19.85
2022-08-19T13:05:24.027Z,19.85
2022-08-19T13:07:29.314Z,19.84
2022-08-19T13:09:35.670Z,19.86
2022-08-19T13:11:40.286Z,19.88
2022-08-19T13:13:45.292Z,19.86
2022-08-19T13:15:48.826Z,19.81
2022-08-19T13:17:54.402Z,19.75
2022-08-19T13:19:58.372Z,19.66
2022-08-19T13:22:01.923Z,19.59
2022-08-19T13:24:07.557Z,19.62
2022-08-19T13:26:12.591Z,19.63
2022-08-19T13:28:16.208Z,19.67
2022-08-19T13:30:38.957Z,19.78
2022-08-19T13:32:59.536Z,19.84
2022-08-19T13:35:03.181Z,19.92
2022-08-19T13:37:07.377Z,20.05
2022-08-19T13:39:12.537Z,20.16
2022-08-19T13:41:16.182Z,20.21
2022-08-19T13:43:23.355Z,20.26
2022-08-19T13:45:30.317Z,20.28
2022-08-19T13:47:35.724Z,20.28
2022-08-19T13:49:39.240Z,20.28
2022-08-19T13:51:43.078Z,20.34
2022-08-19T13:53:48.186Z,20.40
2022-08-19T13:55:54.751Z,20.34
2022-08-19T13:58:01.286Z,20.32
2022-08-19T14:00:06.829Z,20.28
2022-08-19T14:02:11.937Z,20.27
2022-08-19T14:04:15.635Z,20.30
2022-08-19T14:06:19.519Z,20.33
2022-08-19T14:08:23.432Z,20.35
2022-08-19T14:10:29.438Z,20.32
2022-08-19T14:12:34.924Z,20.28
2022-08-19T14:14:39.549Z,20.29
2022-08-19T14:16:43.934Z,20.36
2022-08-19T14:18:47.480Z,20.38
2022-08-19T14:20:51.147Z,20.35
2022-08-19T14:22:55.870Z,20.29
2022-08-19T14:25:00.120Z,20.22
2022-08-19T14:27:04.505Z,20.21
2022-08-19T14:29:10.158Z,20.14
2022-08-19T14:31:17.735Z,20.08
2022-08-19T14:33:21.412Z,19.97
2022-08-19T14:35:35.729Z,19.84
2022-08-19T14:37:45.366Z,19.72
2022-08-19T14:39:49.573Z,19.54
2022-08-19T14:41:53.476Z,19.34
2022-08-19T14:43:57.358Z,19.10
2022-08-19T14:46:02.998Z,18.90
2022-08-19T14:48:07.572Z,18.73
2022-08-19T14:50:18.383Z,18.66
2022-08-19T14:52:22.321Z,18.58
2022-08-19T14:54:26.166Z,18.45
2022-08-19T14:56:33.999Z,18.20
2022-08-19T14:58:39.132Z,18.05
2022-08-19T15:00:42.925Z,17.93
2022-08-19T15:02:48.029Z,17.85
2022-08-19T15:04:58.285Z,17.82
2022-08-19T15:07:05.615Z,17.91
2022-08-19T15:09:09.139Z,18.00
2022-08-19T15:11:15.630Z,18.08
2022-08-19T15:13:20.004Z,18.18
2022-08-19T15:15:23.939Z,18.30
2022-08-19T15:17:45.895Z,18.35
2022-08-19T15:19:51.484Z,18.39
2022-08-19T15:21:55.964Z,18.37
2022-08-19T15:24:01.673Z,18.39
2022-08-19T15:26:06.503Z,18.40
2022-08-19T15:28:12.246Z,18.39
2022-08-19T15:30:22.629Z,18.40
2022-08-19T15:32:27.589Z,18.43
2022-08-19T15:34:32.595Z,18.49
2022-08-19T15:36:38.097Z,18.52
2022-08-19T15:38:46.093Z,18.57
2022-08-19T15:40:50.712Z,18.63
2022-08-19T15:42:54.839Z,18.63
2022-08-19T15:45:01.063Z,18.59
2022-08-19T15:47:06.103Z,18.51
2022-08-19T15:49:11.189Z,18.48
2022-08-19T15:51:14.872Z,18.47
2022-08-19T15:53:19.796Z,18.44
2022-08-19T15:55:33.013Z,18.40
2022-08-19T15:57:55.186Z,18.36
2022-08-19T16:00:16.283Z,18.39
2022-08-19T16:02:43.540Z,18.43
2022-08-19T16:05:06.795Z,18.41
2022-08-19T16:07:10.532Z,18.39
2022-08-19T16:09:17.164Z,18.38
2022-08-19T16:11:22.973Z,18.37
2022-08-19T16:13:26.825Z,18.34
2022-08-19T16:15:32.423Z,18.31
2022-08-19T16:17:36.371Z,18.27
2022-08-19T16:19:40.769Z,18.27
2022-08-19T16:21:45.426Z,18.30
2022-08-19T16:23:50.499Z,18.30
2022-08-19T16:25:55.591Z,18.30
2022-08-19T16:28:07.760Z,18.33
2022-08-19T16:30:12.558Z,18.33
2022-08-19T16:32:16.510Z,18.33
2022-08-19T16:34:20.009Z,18.32
2022-08-19T16:36:24.979Z,18.31
2022-08-19T16:38:29.495Z,18.36
2022-08-19T16:40:33.050Z,18.42
2022-08-19T16:42:38.073Z,18.45
2022-08-19T16:44:45.225Z,18.46
2022-08-19T16:46:57.386Z,18.43
2022-08-19T16:49:02.843Z,18.34
2022-08-19T16:51:09.684Z,18.30
2022-08-19T16:53:13.344Z,18.24
2022-08-19T16:55:17.236Z,18.23
2022-08-19T16:57:21.037Z,18.22
2022-08-19T16:59:26.126Z,18.21
2022-08-19T17:01:30.291Z,18.20
2022-08-19T17:03:36.884Z,18.18
2022-08-19T17:05:44.345Z,18.21
2022-08-19T17:07:47.947Z,18.28
2022-08-19T17:09:52.601Z,18.31
2022-08-19T17:11:56.367Z,18.30
2022-08-19T17:14:00.024Z,18.25
2022-08-19T17:16:05.707Z,18.23
2022-08-19T17:18:11.664Z,18.19
2022-08-19T17:20:15.291Z,18.15
2022-08-19T17:22:18.911Z,18.09
2022-08-19T17:24:22.544Z,18.06
2022-08-19T17:26:27.511Z,18.04
2022-08-19T17:28:31.420Z,18.02
2022-08-19T17:30:35.447Z,17.98
2022-08-19T17:32:40.722Z,17.91
2022-08-19T17:34:44.363Z,17.88
2022-08-19T17:36:47.908Z,17.82
2022-08-19T17:38:52.091Z,17.79
2022-08-19T17:41:04.787Z,17.76
2022-08-19T17:43:08.733Z,17.72
2022-08-19T17:45:13.411Z,17.68
2022-08-19T17:47:17.045Z,17.67
2022-08-19T17:49:22.218Z,17.68
2022-08-19T17:51:40.591Z,17.66
2022-08-19T17:53:46.026Z,17.67
2022-08-19T17:55:49.771Z,17.70
2022-08-19T17:57:53.497Z,17.72
2022-08-19T17:59:58.824Z,17.73
2022-08-19T18:02:03.261Z,17.71
2022-08-19T18:04:10.187Z,17.68
2022-08-19T18:06:16.851Z,17.63
2022-08-19T18:08:20.669Z,17.57
2022-08-19T18:10:32.057Z,17.53
2022-08-19T18:12:39.087Z,17.49
2022-08-19T18:14:43.267Z,17.47
2022-08-19T18:16:47.120Z,17.45
2022-08-19T18:18:50.688Z,17.42
2022-08-19T18:20:54.422Z,17.41
2022-08-19T18:23:45.469Z,17.41
2022-08-19T18:25:26.902Z,17.40
2022-08-19T18:27:30.710Z,17.39
2022-08-19T18:29:38.527Z,17.39
2022-08-19T18:31:43.838Z,17.38
2022-08-19T18:33:52.827Z,17.38
2022-08-19T18:35:56.943Z,17.35
2022-08-19T18:38:23.826Z,17.29
2022-08-19T18:40:46.347Z,17.25
2022-08-19T18:43:19.013Z,17.21
2022-08-19T18:45:43.620Z,17.20
2022-08-19T18:48:04.754Z,17.20
2022-08-19T18:50:10.044Z,17.16
2022-08-19T18:52:15.501Z,17.09
2022-08-19T18:54:21.259Z,17.02
2022-08-19T18:56:29.466Z,16.96
2022-08-19T18:58:34.456Z,16.88
2022-08-19T19:00:38.073Z,16.82
2022-08-19T19:02:41.783Z,16.78
2022-08-19T19:04:45.956Z,16.75
2022-08-19T19:06:50.187Z,16.72
2022-08-19T19:08:55.175Z,16.68
2022-08-19T19:11:05.317Z,16.65
2022-08-19T19:13:08.796Z,16.60
2022-08-19T19:15:12.607Z,16.55
2022-08-19T19:17:16.918Z,16.50
2022-08-19T19:19:20.759Z,16.47
2022-08-19T19:21:31.908Z,16.45
2022-08-19T19:23:40.949Z,16.42
2022-08-19T19:25:50.713Z,16.39
2022-08-19T19:27:56.332Z,16.38
2022-08-19T19:30:00.163Z,16.37
2022-08-19T19:32:04.219Z,16.35
2022-08-19T19:34:29.257Z,16.32
2022-08-19T19:36:32.000Z,16.31
2022-08-19T19:38:36.118Z,16.28
2022-08-19T19:40:40.018Z,16.25
2022-08-19T19:42:43.840Z,16.24
2022-08-19T19:44:50.598Z,16.20
2022-08-19T19:46:57.960Z,16.18
2022-08-19T19:49:02.216Z,16.16
2022-08-19T19:51:06.428Z,16.14
2022-08-19T19:53:10.401Z,16.12
2022-08-19T19:55:18.660Z,16.11
2022-08-19T19:57:26.923Z,16.10
2022-08-19T19:59:30.508Z,16.09
2022-08-19T20:01:35.835Z,16.10
2022-08-19T20:03:40.580Z,16.10
2022-08-19T20:05:44.282Z,16.07
2022-08-19T20:08:05.259Z,16.06
2022-08-19T20:10:09.606Z,16.03
2022-08-19T20:12:13.546Z,15.99
2022-08-19T20:14:20.323Z,15.95
2022-08-19T20:16:25.613Z,15.94
2022-08-19T20:18:30.778Z,15.92
2022-08-19T20:20:34.477Z,15.89
2022-08-19T20:22:40.305Z,15.87
2022-08-19T20:24:45.032Z,15.86
2022-08-19T20:26:53.420Z,15.84
2022-08-19T20:29:07.262Z,15.84
2022-08-19T20:31:17.843Z,15.83
2022-08-19T20:33:21.593Z,15.82
2022-08-19T20:35:26.979Z,15.83
2022-08-19T20:37:30.643Z,15.81
2022-08-19T20:39:34.700Z,15.78
2022-08-19T20:41:39.424Z,15.75
2022-08-19T20:43:43.434Z,15.74
2022-08-19T20:45:47.259Z,15.72
2022-08-19T20:47:50.828Z,15.69
2022-08-19T20:49:54.535Z,15.65
2022-08-19T20:51:59.616Z,15.62
2022-08-19T20:54:03.156Z,15.61
2022-08-19T20:56:09.431Z,15.61
2022-08-19T20:58:20.638Z,15.60
2022-08-19T21:00:24.156Z,15.59
2022-08-19T21:02:27.981Z,15.56
2022-08-19T21:04:31.784Z,15.55
2022-08-19T21:06:35.413Z,15.53
2022-08-19T21:08:41.717Z,15.52
2022-08-19T21:10:45.859Z,15.50
2022-08-19T21:12:49.512Z,15.50
2022-08-19T21:14:53.329Z,15.48
2022-08-19T21:16:57.063Z,15.46
2022-08-19T21:19:00.666Z,15.45
2022-08-19T21:21:04.896Z,15.45
2022-08-19T21:23:11.191Z,15.45
2022-08-19T21:25:18.260Z,15.42
2022-08-19T21:27:21.885Z,15.41
2022-08-19T21:29:25.739Z,15.40
2022-08-19T21:31:29.472Z,15.37
2022-08-19T21:33:33.264Z,15.35
2022-08-19T21:35:37.414Z,15.35
2022-08-19T21:37:40.979Z,15.34
2022-08-19T21:39:44.738Z,15.32
2022-08-19T21:41:50.036Z,15.32
2022-08-19T21:43:54.117Z,15.30
2022-08-19T21:45:57.619Z,15.29
2022-08-19T21:48:01.324Z,15.30
2022-08-19T21:50:06.536Z,15.28
2022-08-19T21:52:10.856Z,15.27
2022-08-19T21:54:14.470Z,15.27
2022-08-19T21:56:18.153Z,15.24
2022-08-19T21:58:30.134Z,15.24
2022-08-19T22:00:35.560Z,15.23
2022-08-19T22:02:40.120Z,15.24
2022-08-19T22:04:43.905Z,15.23
2022-08-19T22:06:47.712Z,15.23
2022-08-19T22:08:51.434Z,15.21
2022-08-19T22:10:55.402Z,15.21
2022-08-19T22:13:00.498Z,15.21
2022-08-19T22:15:07.338Z,15.19
2022-08-19T22:17:10.978Z,15.18
2022-08-19T22:19:14.681Z,15.16
2022-08-19T22:21:21.274Z,15.15
2022-08-19T22:23:44.517Z,15.13
2022-08-19T22:25:48.665Z,15.11
2022-08-19T22:27:52.617Z,15.10
2022-08-19T22:30:00.365Z,15.07
2022-08-19T22:32:26.166Z,15.03
2022-08-19T22:34:30.206Z,15.00
2022-08-19T22:36:34.383Z,14.98
2022-08-19T22:38:38.622Z,14.98
2022-08-19T22:40:48.595Z,14.96
2022-08-19T22:43:00.271Z,14.94
2022-08-19T22:45:04.133Z,14.91
2022-08-19T22:47:10.259Z,14.88
2022-08-19T22:49:16.348Z,14.84
2022-08-19T22:51:37.146Z,14.84
2022-08-19T22:53:44.114Z,14.85
2022-08-19T22:55:47.752Z,14.84
2022-08-19T22:57:51.355Z,14.82
2022-08-19T22:59:56.150Z,14.81
2022-08-19T23:02:02.620Z,14.77
2022-08-19T23:04:07.891Z,14.75
2022-08-19T23:06:12.535Z,14.73
2022-08-19T23:08:16.123Z,14.74
2022-08-19T23:10:27.134Z,14.73
2022-08-19T23:12:34.875Z,14.73
2022-08-19T23:14:38.567Z,14.74
2022-08-19T23:16:42.894Z,14.76
2022-08-19T23:18:46.771Z,14.77
2022-08-19T23:20:53.984Z,14.76
2022-08-19T23:22:58.688Z,14.77
2022-08-19T23:25:03.878Z,14.78
2022-08-19T23:27:24.840Z,14.78
2022-08-19T23:29:46.039Z,14.76
2022-08-19T23:31:52.135Z,14.78
2022-08-19T23:33:55.650Z,14.76
2022-08-19T23:36:03.062Z,14.76
2022-08-19T23:38:07.713Z,14.77
2022-08-19T23:40:12.063Z,14.77
2022-08-19T23:42:15.753Z,14.78
2022-08-19T23:44:19.464Z,14.81
2022-08-19T23:46:27.759Z,14.82
2022-08-19T23:48:33.156Z,14.82
2022-08-19T23:50:37.654Z,14.82
2022-08-19T23:52:47.692Z,14.85
2022-08-19T23:54:51.379Z,14.88
2022-08-19T23:56:55.034Z,14.87
2022-08-19T23:58:59.455Z,14.87
